sensor_id;sensor_type;location;lat;lon;timestamp;P1;durP1;ratioP1;P2;durP2;ratioP2
16484;SDS011;8353;47.856;12.344;2022-10-16T00:01:20;3.63;;;1.70;;
16484;SDS011;8353;47.856;12.344;2022-10-16T00:03:52;3.53;;;1.65;;
16484;SDS011;8353;47.856;12.344;2022-10-16T00:06:23;2.13;;;1.60;;
16484;SDS011;8353;47.856;12.344;2022-10-16T00:08:55;3.50;;;1.63;;
16484;SDS011;8353;47.856;12.344;2022-10-16T00:11:27;1.95;;;1.55;;
16484;SDS011;8353;47.856;12.344;2022-10-16T00:14:00;1.70;;;1.40;;
16484;SDS011;8353;47.856;12.344;2022-10-16T00:16:33;4.28;;;1.70;;
16484;SDS011;8353;47.856;12.344;2022-10-16T00:19:04;1.75;;;1.55;;
16484;SDS011;8353;47.856;12.344;2022-10-16T00:21:35;2.42;;;1.60;;
16484;SDS011;8353;47.856;12.344;2022-10-16T00:24:06;2.45;;;1.33;;
16484;SDS011;8353;47.856;12.344;2022-10-16T00:26:38;1.35;;;1.25;;
16484;SDS011;8353;47.856;12.344;2022-10-16T00:29:09;4.00;;;1.70;;
16484;SDS011;8353;47.856;12.344;2022-10-16T00:31:41;3.72;;;1.70;;
16484;SDS011;8353;47.856;12.344;2022-10-16T00:34:11;2.10;;;1.30;;
16484;SDS011;8353;47.856;12.344;2022-10-16T00:36:42;2.60;;;1.60;;
16484;SDS011;8353;47.856;12.344;2022-10-16T00:39:12;3.90;;;1.90;;
16484;SDS011;8353;47.856;12.344;2022-10-16T00:41:42;1.40;;;1.27;;
16484;SDS011;8353;47.856;12.344;2022-10-16T00:47:19;2.05;;;1.13;;
16484;SDS011;8353;47.856;12.344;2022-10-16T00:49:56;1.20;;;1.10;;
16484;SDS011;8353;47.856;12.344;2022-10-16T00:52:30;1.30;;;1.02;;
16484;SDS011;8353;47.856;12.344;2022-10-16T00:55:01;1.05;;;0.98;;
16484;SDS011;8353;47.856;12.344;2022-10-16T00:57:33;1.80;;;1.23;;
16484;SDS011;8353;47.856;12.344;2022-10-16T01:00:04;2.88;;;1.20;;
16484;SDS011;8353;47.856;12.344;2022-10-16T01:02:38;2.38;;;1.50;;
16484;SDS011;8353;47.856;12.344;2022-10-16T01:05:08;7.45;;;2.15;;
16484;SDS011;8353;47.856;12.344;2022-10-16T01:07:41;1.38;;;1.27;;
16484;SDS011;8353;47.856;12.344;2022-10-16T01:10:21;1.52;;;1.20;;
16484;SDS011;8353;47.856;12.344;2022-10-16T01:12:59;2.08;;;1.42;;
16484;SDS011;8353;47.856;12.344;2022-10-16T01:15:35;1.85;;;1.38;;
16484;SDS011;8353;47.856;12.344;2022-10-16T01:18:13;3.45;;;1.80;;
16484;SDS011;8353;47.856;12.344;2022-10-16T01:20:49;3.42;;;1.30;;
16484;SDS011;8353;47.856;12.344;2022-10-16T01:23:28;3.08;;;1.40;;
16484;SDS011;8353;47.856;12.344;2022-10-16T01:26:11;2.13;;;1.25;;
16484;SDS011;8353;47.856;12.344;2022-10-16T01:28:55;1.35;;;1.25;;
16484;SDS011;8353;47.856;12.344;2022-10-16T01:31:31;3.38;;;1.15;;
16484;SDS011;8353;47.856;12.344;2022-10-16T01:34:05;3.42;;;1.65;;
16484;SDS011;8353;47.856;12.344;2022-10-16T01:36:41;3.20;;;1.40;;
16484;SDS011;8353;47.856;12.344;2022-10-16T01:39:17;1.27;;;1.17;;
16484;SDS011;8353;47.856;12.344;2022-10-16T01:41:52;1.20;;;1.10;;
16484;SDS011;8353;47.856;12.344;2022-10-16T01:44:29;5.57;;;1.55;;
16484;SDS011;8353;47.856;12.344;2022-10-16T01:47:02;1.52;;;1.10;;
16484;SDS011;8353;47.856;12.344;2022-10-16T01:49:34;1.77;;;1.15;;
16484;SDS011;8353;47.856;12.344;2022-10-16T01:52:08;2.10;;;1.00;;
16484;SDS011;8353;47.856;12.344;2022-10-16T01:54:57;1.55;;;1.35;;
16484;SDS011;8353;47.856;12.344;2022-10-16T01:57:29;4.05;;;1.60;;
16484;SDS011;8353;47.856;12.344;2022-10-16T02:00:04;1.90;;;1.55;;
16484;SDS011;8353;47.856;12.344;2022-10-16T02:02:38;3.07;;;1.53;;
16484;SDS011;8353;47.856;12.344;2022-10-16T02:05:13;1.27;;;0.90;;
16484;SDS011;8353;47.856;12.344;2022-10-16T02:08:04;2.33;;;1.00;;
16484;SDS011;8353;47.856;12.344;2022-10-16T02:10:35;1.20;;;1.10;;
16484;SDS011;8353;47.856;12.344;2022-10-16T02:13:06;1.60;;;1.40;;
16484;SDS011;8353;47.856;12.344;2022-10-16T02:15:41;1.20;;;1.00;;
16484;SDS011;8353;47.856;12.344;2022-10-16T02:18:11;1.10;;;1.00;;
16484;SDS011;8353;47.856;12.344;2022-10-16T02:20:43;1.43;;;1.13;;
16484;SDS011;8353;47.856;12.344;2022-10-16T02:23:19;1.15;;;1.00;;
16484;SDS011;8353;47.856;12.344;2022-10-16T02:25:54;2.70;;;1.65;;
16484;SDS011;8353;47.856;12.344;2022-10-16T02:28:27;0.83;;;0.83;;
16484;SDS011;8353;47.856;12.344;2022-10-16T02:31:06;3.03;;;1.73;;
16484;SDS011;8353;47.856;12.344;2022-10-16T02:33:40;2.30;;;1.80;;
16484;SDS011;8353;47.856;12.344;2022-10-16T02:36:11;1.10;;;1.00;;
16484;SDS011;8353;47.856;12.344;2022-10-16T02:38:43;3.13;;;1.52;;
16484;SDS011;8353;47.856;12.344;2022-10-16T02:41:14;0.85;;;0.80;;
16484;SDS011;8353;47.856;12.344;2022-10-16T02:43:45;1.20;;;1.10;;
16484;SDS011;8353;47.856;12.344;2022-10-16T02:46:17;1.33;;;1.23;;
16484;SDS011;8353;47.856;12.344;2022-10-16T02:48:48;2.60;;;1.27;;
16484;SDS011;8353;47.856;12.344;2022-10-16T02:51:19;1.97;;;1.13;;
16484;SDS011;8353;47.856;12.344;2022-10-16T02:53:49;1.40;;;1.20;;
16484;SDS011;8353;47.856;12.344;2022-10-16T02:56:20;1.60;;;1.30;;
16484;SDS011;8353;47.856;12.344;2022-10-16T02:58:50;1.43;;;1.00;;
16484;SDS011;8353;47.856;12.344;2022-10-16T03:01:22;1.00;;;1.00;;
16484;SDS011;8353;47.856;12.344;2022-10-16T03:03:53;1.97;;;1.13;;
16484;SDS011;8353;47.856;12.344;2022-10-16T03:06:23;2.07;;;1.30;;
16484;SDS011;8353;47.856;12.344;2022-10-16T03:08:54;2.07;;;1.23;;
16484;SDS011;8353;47.856;12.344;2022-10-16T03:11:24;1.63;;;1.23;;
16484;SDS011;8353;47.856;12.344;2022-10-16T03:13:55;2.10;;;1.80;;
16484;SDS011;8353;47.856;12.344;2022-10-16T03:16:26;1.45;;;1.15;;
16484;SDS011;8353;47.856;12.344;2022-10-16T03:18:57;1.37;;;1.20;;
16484;SDS011;8353;47.856;12.344;2022-10-16T03:21:27;1.98;;;1.10;;
16484;SDS011;8353;47.856;12.344;2022-10-16T03:23:58;1.77;;;1.20;;
16484;SDS011;8353;47.856;12.344;2022-10-16T03:26:29;2.63;;;1.20;;
16484;SDS011;8353;47.856;12.344;2022-10-16T03:28:59;1.23;;;1.13;;
16484;SDS011;8353;47.856;12.344;2022-10-16T03:31:32;1.57;;;1.30;;
16484;SDS011;8353;47.856;12.344;2022-10-16T03:34:03;2.07;;;1.73;;
16484;SDS011;8353;47.856;12.344;2022-10-16T03:36:33;2.03;;;1.83;;
16484;SDS011;8353;47.856;12.344;2022-10-16T03:39:04;4.82;;;2.00;;
16484;SDS011;8353;47.856;12.344;2022-10-16T03:41:35;2.25;;;1.30;;
16484;SDS011;8353;47.856;12.344;2022-10-16T03:44:05;1.43;;;1.20;;
16484;SDS011;8353;47.856;12.344;2022-10-16T03:46:38;2.08;;;1.48;;
16484;SDS011;8353;47.856;12.344;2022-10-16T03:49:09;2.83;;;1.47;;
16484;SDS011;8353;47.856;12.344;2022-10-16T03:51:39;2.67;;;1.50;;
16484;SDS011;8353;47.856;12.344;2022-10-16T03:54:10;1.13;;;1.13;;
16484;SDS011;8353;47.856;12.344;2022-10-16T03:56:40;2.43;;;2.03;;
16484;SDS011;8353;47.856;12.344;2022-10-16T03:59:10;1.80;;;1.52;;
16484;SDS011;8353;47.856;12.344;2022-10-16T04:01:42;1.88;;;1.30;;
16484;SDS011;8353;47.856;12.344;2022-10-16T04:04:12;2.35;;;2.15;;
16484;SDS011;8353;47.856;12.344;2022-10-16T04:06:43;2.63;;;2.43;;
16484;SDS011;8353;47.856;12.344;2022-10-16T04:09:13;2.57;;;2.30;;
16484;SDS011;8353;47.856;12.344;2022-10-16T04:11:44;2.27;;;1.57;;
16484;SDS011;8353;47.856;12.344;2022-10-16T04:14:15;1.80;;;1.60;;
16484;SDS011;8353;47.856;12.344;2022-10-16T04:16:47;2.97;;;2.13;;
16484;SDS011;8353;47.856;12.344;2022-10-16T04:19:17;2.60;;;2.40;;
16484;SDS011;8353;47.856;12.344;2022-10-16T04:21:48;1.77;;;1.60;;
16484;SDS011;8353;47.856;12.344;2022-10-16T04:24:18;2.30;;;2.10;;
16484;SDS011;8353;47.856;12.344;2022-10-16T04:26:49;3.47;;;2.73;;
16484;SDS011;8353;47.856;12.344;2022-10-16T04:29:20;1.90;;;1.70;;
16484;SDS011;8353;47.856;12.344;2022-10-16T04:31:51;2.50;;;2.30;;
16484;SDS011;8353;47.856;12.344;2022-10-16T04:34:22;3.07;;;1.77;;
16484;SDS011;8353;47.856;12.344;2022-10-16T04:36:53;3.30;;;2.57;;
16484;SDS011;8353;47.856;12.344;2022-10-16T04:39:23;6.17;;;1.70;;
16484;SDS011;8353;47.856;12.344;2022-10-16T04:41:54;1.70;;;1.60;;
16484;SDS011;8353;47.856;12.344;2022-10-16T04:44:24;3.43;;;2.10;;
16484;SDS011;8353;47.856;12.344;2022-10-16T04:46:56;1.53;;;1.43;;
16484;SDS011;8353;47.856;12.344;2022-10-16T04:49:27;3.67;;;2.60;;
16484;SDS011;8353;47.856;12.344;2022-10-16T04:51:57;6.47;;;5.70;;
16484;SDS011;8353;47.856;12.344;2022-10-16T04:54:28;2.73;;;2.53;;
16484;SDS011;8353;47.856;12.344;2022-10-16T04:56:58;2.90;;;2.40;;
16484;SDS011;8353;47.856;12.344;2022-10-16T04:59:29;2.00;;;1.80;;
16484;SDS011;8353;47.856;12.344;2022-10-16T05:02:00;6.00;;;4.43;;
16484;SDS011;8353;47.856;12.344;2022-10-16T05:04:31;5.53;;;3.30;;
16484;SDS011;8353;47.856;12.344;2022-10-16T05:07:01;3.80;;;2.83;;
16484;SDS011;8353;47.856;12.344;2022-10-16T05:09:32;4.53;;;3.33;;
16484;SDS011;8353;47.856;12.344;2022-10-16T05:12:03;4.83;;;4.30;;
16484;SDS011;8353;47.856;12.344;2022-10-16T05:14:34;10.53;;;8.37;;
16484;SDS011;8353;47.856;12.344;2022-10-16T05:17:06;7.13;;;6.10;;
16484;SDS011;8353;47.856;12.344;2022-10-16T05:19:36;4.30;;;3.67;;
16484;SDS011;8353;47.856;12.344;2022-10-16T05:22:07;6.37;;;4.83;;
16484;SDS011;8353;47.856;12.344;2022-10-16T05:24:37;3.50;;;3.20;;
16484;SDS011;8353;47.856;12.344;2022-10-16T05:27:07;3.97;;;3.30;;
16484;SDS011;8353;47.856;12.344;2022-10-16T05:29:38;5.63;;;4.50;;
16484;SDS011;8353;47.856;12.344;2022-10-16T05:32:10;4.83;;;4.43;;
16484;SDS011;8353;47.856;12.344;2022-10-16T05:34:40;3.63;;;3.30;;
16484;SDS011;8353;47.856;12.344;2022-10-16T05:37:11;5.03;;;3.60;;
16484;SDS011;8353;47.856;12.344;2022-10-16T05:39:42;3.23;;;2.90;;
16484;SDS011;8353;47.856;12.344;2022-10-16T05:42:13;5.27;;;4.20;;
16484;SDS011;8353;47.856;12.344;2022-10-16T05:44:43;3.90;;;3.30;;
16484;SDS011;8353;47.856;12.344;2022-10-16T05:47:15;3.30;;;3.00;;
16484;SDS011;8353;47.856;12.344;2022-10-16T05:49:46;4.17;;;3.40;;
16484;SDS011;8353;47.856;12.344;2022-10-16T05:52:16;3.60;;;3.10;;
16484;SDS011;8353;47.856;12.344;2022-10-16T05:54:47;5.07;;;3.33;;
16484;SDS011;8353;47.856;12.344;2022-10-16T05:57:18;4.47;;;3.27;;
16484;SDS011;8353;47.856;12.344;2022-10-16T05:59:48;5.60;;;3.87;;
16484;SDS011;8353;47.856;12.344;2022-10-16T06:02:20;3.43;;;3.03;;
16484;SDS011;8353;47.856;12.344;2022-10-16T06:04:51;4.67;;;4.27;;
16484;SDS011;8353;47.856;12.344;2022-10-16T06:07:23;3.57;;;3.27;;
16484;SDS011;8353;47.856;12.344;2022-10-16T06:09:53;6.70;;;4.60;;
16484;SDS011;8353;47.856;12.344;2022-10-16T06:12:24;4.20;;;3.80;;
16484;SDS011;8353;47.856;12.344;2022-10-16T06:14:56;5.53;;;2.90;;
16484;SDS011;8353;47.856;12.344;2022-10-16T06:17:28;3.73;;;3.40;;
16484;SDS011;8353;47.856;12.344;2022-10-16T06:19:58;8.07;;;4.53;;
16484;SDS011;8353;47.856;12.344;2022-10-16T06:22:28;4.93;;;4.53;;
16484;SDS011;8353;47.856;12.344;2022-10-16T06:24:59;5.35;;;4.03;;
16484;SDS011;8353;47.856;12.344;2022-10-16T06:27:29;4.45;;;3.05;;
16484;SDS011;8353;47.856;12.344;2022-10-16T06:30:02;4.43;;;3.20;;
16484;SDS011;8353;47.856;12.344;2022-10-16T06:32:35;4.68;;;3.00;;
16484;SDS011;8353;47.856;12.344;2022-10-16T06:35:05;6.80;;;2.90;;
16484;SDS011;8353;47.856;12.344;2022-10-16T06:37:36;4.07;;;3.67;;
16484;SDS011;8353;47.856;12.344;2022-10-16T06:40:07;4.80;;;3.28;;
16484;SDS011;8353;47.856;12.344;2022-10-16T06:42:37;4.85;;;3.83;;
16484;SDS011;8353;47.856;12.344;2022-10-16T06:45:09;4.47;;;3.25;;
16484;SDS011;8353;47.856;12.344;2022-10-16T06:47:40;3.35;;;3.05;;
16484;SDS011;8353;47.856;12.344;2022-10-16T06:50:11;3.47;;;3.17;;
16484;SDS011;8353;47.856;12.344;2022-10-16T06:52:57;4.43;;;3.10;;
16484;SDS011;8353;47.856;12.344;2022-10-16T06:55:28;4.97;;;3.78;;
16484;SDS011;8353;47.856;12.344;2022-10-16T06:58:00;4.40;;;3.92;;
16484;SDS011;8353;47.856;12.344;2022-10-16T07:00:39;4.75;;;4.35;;
16484;SDS011;8353;47.856;12.344;2022-10-16T07:03:11;5.80;;;4.00;;
16484;SDS011;8353;47.856;12.344;2022-10-16T07:05:42;5.13;;;3.65;;
16484;SDS011;8353;47.856;12.344;2022-10-16T07:08:12;5.05;;;3.88;;
16484;SDS011;8353;47.856;12.344;2022-10-16T07:10:43;3.42;;;3.13;;
16484;SDS011;8353;47.856;12.344;2022-10-16T07:13:13;3.15;;;2.85;;
16484;SDS011;8353;47.856;12.344;2022-10-16T07:15:44;3.95;;;2.90;;
16484;SDS011;8353;47.856;12.344;2022-10-16T07:18:16;3.40;;;3.10;;
16484;SDS011;8353;47.856;12.344;2022-10-16T07:20:47;3.53;;;2.75;;
16484;SDS011;8353;47.856;12.344;2022-10-16T07:23:17;2.90;;;2.60;;
16484;SDS011;8353;47.856;12.344;2022-10-16T07:25:53;2.58;;;2.38;;
16484;SDS011;8353;47.856;12.344;2022-10-16T07:28:24;2.97;;;2.40;;
16484;SDS011;8353;47.856;12.344;2022-10-16T07:30:55;2.83;;;2.63;;
16484;SDS011;8353;47.856;12.344;2022-10-16T07:33:30;2.45;;;2.25;;
16484;SDS011;8353;47.856;12.344;2022-10-16T07:36:01;2.63;;;2.00;;
16484;SDS011;8353;47.856;12.344;2022-10-16T07:38:32;2.95;;;2.60;;
16484;SDS011;8353;47.856;12.344;2022-10-16T07:41:03;3.97;;;2.53;;
16484;SDS011;8353;47.856;12.344;2022-10-16T07:43:35;2.42;;;2.22;;
16484;SDS011;8353;47.856;12.344;2022-10-16T07:46:05;3.10;;;2.25;;
16484;SDS011;8353;47.856;12.344;2022-10-16T07:48:36;2.45;;;2.25;;
16484;SDS011;8353;47.856;12.344;2022-10-16T07:51:07;2.80;;;2.47;;
16484;SDS011;8353;47.856;12.344;2022-10-16T07:53:39;3.50;;;1.90;;
16484;SDS011;8353;47.856;12.344;2022-10-16T07:56:09;2.10;;;2.00;;
16484;SDS011;8353;47.856;12.344;2022-10-16T07:58:40;2.40;;;2.20;;
16484;SDS011;8353;47.856;12.344;2022-10-16T08:01:11;2.00;;;1.90;;
16484;SDS011;8353;47.856;12.344;2022-10-16T08:03:45;2.78;;;1.90;;
16484;SDS011;8353;47.856;12.344;2022-10-16T08:06:16;2.25;;;1.98;;
16484;SDS011;8353;47.856;12.344;2022-10-16T08:08:47;3.50;;;2.05;;
16484;SDS011;8353;47.856;12.344;2022-10-16T08:11:18;2.30;;;2.10;;
16484;SDS011;8353;47.856;12.344;2022-10-16T08:13:48;2.17;;;1.98;;
16484;SDS011;8353;47.856;12.344;2022-10-16T08:16:19;2.70;;;1.85;;
16484;SDS011;8353;47.856;12.344;2022-10-16T08:18:52;1.88;;;1.77;;
16484;SDS011;8353;47.856;12.344;2022-10-16T08:21:22;1.90;;;1.80;;
16484;SDS011;8353;47.856;12.344;2022-10-16T08:23:53;2.05;;;1.65;;
16484;SDS011;8353;47.856;12.344;2022-10-16T08:26:25;5.10;;;2.33;;
16484;SDS011;8353;47.856;12.344;2022-10-16T08:28:56;1.40;;;1.30;;
16484;SDS011;8353;47.856;12.344;2022-10-16T08:31:27;1.88;;;1.67;;
16484;SDS011;8353;47.856;12.344;2022-10-16T08:33:59;2.15;;;1.95;;
16484;SDS011;8353;47.856;12.344;2022-10-16T08:36:29;1.52;;;1.40;;
16484;SDS011;8353;47.856;12.344;2022-10-16T08:38:59;1.80;;;1.70;;
16484;SDS011;8353;47.856;12.344;2022-10-16T08:41:41;1.80;;;1.70;;
16484;SDS011;8353;47.856;12.344;2022-10-16T08:44:37;1.88;;;1.52;;
16484;SDS011;8353;47.856;12.344;2022-10-16T08:47:34;1.88;;;1.40;;
16484;SDS011;8353;47.856;12.344;2022-10-16T08:50:17;1.75;;;1.58;;
16484;SDS011;8353;47.856;12.344;2022-10-16T08:52:52;1.70;;;1.60;;
16484;SDS011;8353;47.856;12.344;2022-10-16T08:55:28;2.22;;;2.03;;
16484;SDS011;8353;47.856;12.344;2022-10-16T08:58:05;1.70;;;1.60;;
16484;SDS011;8353;47.856;12.344;2022-10-16T09:00:42;2.20;;;2.03;;
16484;SDS011;8353;47.856;12.344;2022-10-16T09:03:24;1.80;;;1.70;;
16484;SDS011;8353;47.856;12.344;2022-10-16T09:06:07;1.80;;;1.70;;
16484;SDS011;8353;47.856;12.344;2022-10-16T09:08:51;2.75;;;1.65;;
16484;SDS011;8353;47.856;12.344;2022-10-16T09:11:35;2.00;;;1.75;;
16484;SDS011;8353;47.856;12.344;2022-10-16T09:14:18;2.60;;;1.90;;
16484;SDS011;8353;47.856;12.344;2022-10-16T09:17:08;1.70;;;1.60;;
16484;SDS011;8353;47.856;12.344;2022-10-16T09:19:51;3.03;;;2.03;;
16484;SDS011;8353;47.856;12.344;2022-10-16T09:22:27;1.70;;;1.60;;
16484;SDS011;8353;47.856;12.344;2022-10-16T09:25:00;4.28;;;1.67;;
16484;SDS011;8353;47.856;12.344;2022-10-16T09:27:40;4.00;;;1.80;;
16484;SDS011;8353;47.856;12.344;2022-10-16T09:30:13;1.80;;;1.70;;
16484;SDS011;8353;47.856;12.344;2022-10-16T09:32:45;2.38;;;2.03;;
16484;SDS011;8353;47.856;12.344;2022-10-16T09:35:19;2.80;;;1.98;;
16484;SDS011;8353;47.856;12.344;2022-10-16T09:37:54;1.75;;;1.65;;
16484;SDS011;8353;47.856;12.344;2022-10-16T09:40:25;4.80;;;1.90;;
16484;SDS011;8353;47.856;12.344;2022-10-16T09:42:57;2.05;;;1.85;;
16484;SDS011;8353;47.856;12.344;2022-10-16T09:45:33;2.20;;;2.00;;
16484;SDS011;8353;47.856;12.344;2022-10-16T09:48:09;5.20;;;2.30;;
16484;SDS011;8353;47.856;12.344;2022-10-16T09:50:42;3.97;;;2.40;;
16484;SDS011;8353;47.856;12.344;2022-10-16T09:53:14;2.10;;;1.90;;
16484;SDS011;8353;47.856;12.344;2022-10-16T09:55:47;2.13;;;1.92;;
16484;SDS011;8353;47.856;12.344;2022-10-16T09:58:21;2.25;;;2.00;;
16484;SDS011;8353;47.856;12.344;2022-10-16T10:00:52;2.33;;;2.13;;
16484;SDS011;8353;47.856;12.344;2022-10-16T10:03:30;1.90;;;1.77;;
16484;SDS011;8353;47.856;12.344;2022-10-16T10:06:07;2.15;;;1.77;;
16484;SDS011;8353;47.856;12.344;2022-10-16T10:08:58;2.15;;;1.95;;
16484;SDS011;8353;47.856;12.344;2022-10-16T10:11:36;1.90;;;1.80;;
16484;SDS011;8353;47.856;12.344;2022-10-16T10:14:15;2.03;;;1.70;;
16484;SDS011;8353;47.856;12.344;2022-10-16T10:17:06;2.80;;;1.80;;
16484;SDS011;8353;47.856;12.344;2022-10-16T10:19:42;1.80;;;1.70;;
16484;SDS011;8353;47.856;12.344;2022-10-16T10:22:26;1.70;;;1.60;;
16484;SDS011;8353;47.856;12.344;2022-10-16T10:25:07;1.70;;;1.60;;
16484;SDS011;8353;47.856;12.344;2022-10-16T10:27:49;1.92;;;1.77;;
16484;SDS011;8353;47.856;12.344;2022-10-16T10:30:38;1.70;;;1.60;;
16484;SDS011;8353;47.856;12.344;2022-10-16T10:33:18;1.90;;;1.70;;
16484;SDS011;8353;47.856;12.344;2022-10-16T10:35:54;1.60;;;1.50;;
16484;SDS011;8353;47.856;12.344;2022-10-16T10:38:37;1.60;;;1.50;;
16484;SDS011;8353;47.856;12.344;2022-10-16T10:41:22;1.60;;;1.50;;
16484;SDS011;8353;47.856;12.344;2022-10-16T10:44:20;2.00;;;1.40;;
16484;SDS011;8353;47.856;12.344;2022-10-16T10:47:01;1.92;;;1.10;;
16484;SDS011;8353;47.856;12.344;2022-10-16T10:49:43;1.33;;;1.23;;
16484;SDS011;8353;47.856;12.344;2022-10-16T10:52:27;1.52;;;1.42;;
16484;SDS011;8353;47.856;12.344;2022-10-16T10:55:09;1.55;;;1.30;;
16484;SDS011;8353;47.856;12.344;2022-10-16T10:57:50;1.08;;;1.00;;
16484;SDS011;8353;47.856;12.344;2022-10-16T11:00:40;1.10;;;0.95;;
16484;SDS011;8353;47.856;12.344;2022-10-16T11:03:24;1.85;;;1.00;;
16484;SDS011;8353;47.856;12.344;2022-10-16T11:06:04;1.50;;;1.30;;
16484;SDS011;8353;47.856;12.344;2022-10-16T11:08:39;2.72;;;1.55;;
16484;SDS011;8353;47.856;12.344;2022-10-16T11:11:14;1.67;;;1.58;;
16484;SDS011;8353;47.856;12.344;2022-10-16T11:13:52;1.75;;;1.50;;
16484;SDS011;8353;47.856;12.344;2022-10-16T11:16:27;1.40;;;1.30;;
16484;SDS011;8353;47.856;12.344;2022-10-16T11:18:59;1.30;;;1.20;;
16484;SDS011;8353;47.856;12.344;2022-10-16T11:21:39;1.40;;;1.30;;
16484;SDS011;8353;47.856;12.344;2022-10-16T11:24:19;3.70;;;1.40;;
16484;SDS011;8353;47.856;12.344;2022-10-16T11:26:53;1.63;;;1.52;;
16484;SDS011;8353;47.856;12.344;2022-10-16T11:29:28;1.33;;;1.20;;
16484;SDS011;8353;47.856;12.344;2022-10-16T11:32:05;1.50;;;1.40;;
16484;SDS011;8353;47.856;12.344;2022-10-16T11:34:47;1.50;;;1.40;;
16484;SDS011;8353;47.856;12.344;2022-10-16T11:37:23;2.10;;;1.30;;
16484;SDS011;8353;47.856;12.344;2022-10-16T11:39:56;1.30;;;1.20;;
16484;SDS011;8353;47.856;12.344;2022-10-16T11:42:34;1.70;;;1.60;;
16484;SDS011;8353;47.856;12.344;2022-10-16T11:45:13;1.65;;;1.30;;
16484;SDS011;8353;47.856;12.344;2022-10-16T11:47:58;1.80;;;1.10;;
16484;SDS011;8353;47.856;12.344;2022-10-16T11:50:33;1.60;;;1.23;;
16484;SDS011;8353;47.856;12.344;2022-10-16T11:53:09;2.88;;;1.10;;
16484;SDS011;8353;47.856;12.344;2022-10-16T11:55:46;1.48;;;1.02;;
16484;SDS011;8353;47.856;12.344;2022-10-16T11:58:19;2.03;;;1.70;;
16484;SDS011;8353;47.856;12.344;2022-10-16T12:00:58;1.42;;;1.02;;
16484;SDS011;8353;47.856;12.344;2022-10-16T12:03:39;2.08;;;1.42;;
16484;SDS011;8353;47.856;12.344;2022-10-16T12:06:16;1.40;;;1.30;;
16484;SDS011;8353;47.856;12.344;2022-10-16T12:08:56;1.45;;;1.35;;
16484;SDS011;8353;47.856;12.344;2022-10-16T12:11:34;1.20;;;1.10;;
16484;SDS011;8353;47.856;12.344;2022-10-16T12:14:07;1.58;;;1.25;;
16484;SDS011;8353;47.856;12.344;2022-10-16T12:17:04;3.90;;;1.00;;
16484;SDS011;8353;47.856;12.344;2022-10-16T12:19:58;1.10;;;1.00;;
16484;SDS011;8353;47.856;12.344;2022-10-16T12:22:29;1.80;;;1.10;;
16484;SDS011;8353;47.856;12.344;2022-10-16T12:25:02;1.20;;;1.10;;
16484;SDS011;8353;47.856;12.344;2022-10-16T12:27:32;1.08;;;0.98;;
16484;SDS011;8353;47.856;12.344;2022-10-16T12:30:04;1.52;;;0.90;;
16484;SDS011;8353;47.856;12.344;2022-10-16T12:32:38;1.40;;;1.10;;
16484;SDS011;8353;47.856;12.344;2022-10-16T12:35:17;1.23;;;1.00;;
16484;SDS011;8353;47.856;12.344;2022-10-16T12:38:03;1.20;;;1.10;;
16484;SDS011;8353;47.856;12.344;2022-10-16T12:40:36;0.95;;;0.90;;
16484;SDS011;8353;47.856;12.344;2022-10-16T12:43:11;1.15;;;1.05;;
16484;SDS011;8353;47.856;12.344;2022-10-16T12:46:18;2.15;;;1.17;;
16484;SDS011;8353;47.856;12.344;2022-10-16T12:49:04;1.10;;;0.90;;
16484;SDS011;8353;47.856;12.344;2022-10-16T12:51:36;0.90;;;0.90;;
16484;SDS011;8353;47.856;12.344;2022-10-16T12:54:11;1.30;;;1.20;;
16484;SDS011;8353;47.856;12.344;2022-10-16T12:56:46;1.38;;;0.77;;
16484;SDS011;8353;47.856;12.344;2022-10-16T12:59:30;1.35;;;0.95;;
16484;SDS011;8353;47.856;12.344;2022-10-16T13:02:24;1.05;;;0.82;;
16484;SDS011;8353;47.856;12.344;2022-10-16T13:05:18;1.95;;;0.95;;
16484;SDS011;8353;47.856;12.344;2022-10-16T13:08:01;1.38;;;0.90;;
16484;SDS011;8353;47.856;12.344;2022-10-16T13:10:44;0.80;;;0.80;;
16484;SDS011;8353;47.856;12.344;2022-10-16T13:13:31;2.20;;;1.10;;
16484;SDS011;8353;47.856;12.344;2022-10-16T13:16:18;0.90;;;0.90;;
16484;SDS011;8353;47.856;12.344;2022-10-16T13:18:56;0.80;;;0.80;;
16484;SDS011;8353;47.856;12.344;2022-10-16T13:21:38;0.82;;;0.82;;
16484;SDS011;8353;47.856;12.344;2022-10-16T13:24:20;1.45;;;0.90;;
16484;SDS011;8353;47.856;12.344;2022-10-16T13:27:07;1.55;;;1.00;;
16484;SDS011;8353;47.856;12.344;2022-10-16T13:29:45;0.93;;;0.93;;
16484;SDS011;8353;47.856;12.344;2022-10-16T13:32:21;1.90;;;0.90;;
16484;SDS011;8353;47.856;12.344;2022-10-16T13:34:52;1.80;;;1.10;;
16484;SDS011;8353;47.856;12.344;2022-10-16T13:37:24;1.90;;;1.00;;
16484;SDS011;8353;47.856;12.344;2022-10-16T13:40:02;1.45;;;1.00;;
16484;SDS011;8353;47.856;12.344;2022-10-16T13:42:41;1.30;;;0.90;;
16484;SDS011;8353;47.856;12.344;2022-10-16T13:45:17;1.10;;;1.00;;
16484;SDS011;8353;47.856;12.344;2022-10-16T13:47:48;0.90;;;0.90;;
16484;SDS011;8353;47.856;12.344;2022-10-16T13:50:19;1.25;;;0.90;;
16484;SDS011;8353;47.856;12.344;2022-10-16T13:52:50;1.88;;;1.00;;
16484;SDS011;8353;47.856;12.344;2022-10-16T13:55:21;0.80;;;0.80;;
16484;SDS011;8353;47.856;12.344;2022-10-16T13:57:52;1.50;;;1.10;;
16484;SDS011;8353;47.856;12.344;2022-10-16T14:00:23;0.95;;;0.93;;
16484;SDS011;8353;47.856;12.344;2022-10-16T14:03:01;1.13;;;0.90;;
16484;SDS011;8353;47.856;12.344;2022-10-16T14:05:33;1.20;;;1.10;;
16484;SDS011;8353;47.856;12.344;2022-10-16T14:08:05;0.80;;;0.80;;
16484;SDS011;8353;47.856;12.344;2022-10-16T14:10:40;1.20;;;1.10;;
16484;SDS011;8353;47.856;12.344;2022-10-16T14:13:13;1.98;;;1.30;;
16484;SDS011;8353;47.856;12.344;2022-10-16T14:15:47;1.33;;;1.23;;
16484;SDS011;8353;47.856;12.344;2022-10-16T14:18:20;2.45;;;1.10;;
16484;SDS011;8353;47.856;12.344;2022-10-16T14:20:52;1.48;;;0.65;;
16484;SDS011;8353;47.856;12.344;2022-10-16T14:23:28;1.67;;;0.88;;
16484;SDS011;8353;47.856;12.344;2022-10-16T14:26:11;0.70;;;0.70;;
16484;SDS011;8353;47.856;12.344;2022-10-16T14:28:44;0.80;;;0.70;;
16484;SDS011;8353;47.856;12.344;2022-10-16T14:31:23;0.80;;;0.70;;
16484;SDS011;8353;47.856;12.344;2022-10-16T14:33:58;0.60;;;0.60;;
16484;SDS011;8353;47.856;12.344;2022-10-16T14:36:29;1.52;;;0.60;;
16484;SDS011;8353;47.856;12.344;2022-10-16T14:39:06;0.93;;;0.70;;
16484;SDS011;8353;47.856;12.344;2022-10-16T14:41:47;0.60;;;0.60;;
16484;SDS011;8353;47.856;12.344;2022-10-16T14:44:21;0.98;;;0.70;;
16484;SDS011;8353;47.856;12.344;2022-10-16T14:46:57;1.45;;;0.88;;
16484;SDS011;8353;47.856;12.344;2022-10-16T14:49:29;0.70;;;0.68;;
16484;SDS011;8353;47.856;12.344;2022-10-16T14:52:00;0.90;;;0.70;;
16484;SDS011;8353;47.856;12.344;2022-10-16T14:54:32;0.60;;;0.60;;
16484;SDS011;8353;47.856;12.344;2022-10-16T14:57:03;0.70;;;0.70;;
16484;SDS011;8353;47.856;12.344;2022-10-16T14:59:36;0.57;;;0.57;;
16484;SDS011;8353;47.856;12.344;2022-10-16T15:02:12;3.15;;;0.55;;
16484;SDS011;8353;47.856;12.344;2022-10-16T15:04:48;0.60;;;0.60;;
16484;SDS011;8353;47.856;12.344;2022-10-16T15:07:19;0.60;;;0.60;;
16484;SDS011;8353;47.856;12.344;2022-10-16T15:09:52;0.90;;;0.52;;
16484;SDS011;8353;47.856;12.344;2022-10-16T15:12:23;1.50;;;0.75;;
16484;SDS011;8353;47.856;12.344;2022-10-16T15:14:53;1.15;;;0.60;;
16484;SDS011;8353;47.856;12.344;2022-10-16T15:17:24;1.02;;;0.75;;
16484;SDS011;8353;47.856;12.344;2022-10-16T15:19:54;0.85;;;0.70;;
16484;SDS011;8353;47.856;12.344;2022-10-16T15:22:27;1.85;;;1.08;;
16484;SDS011;8353;47.856;12.344;2022-10-16T15:24:59;1.15;;;0.80;;
16484;SDS011;8353;47.856;12.344;2022-10-16T15:27:30;0.70;;;0.70;;
16484;SDS011;8353;47.856;12.344;2022-10-16T15:30:08;0.90;;;0.80;;
16484;SDS011;8353;47.856;12.344;2022-10-16T15:32:40;1.05;;;0.90;;
16484;SDS011;8353;47.856;12.344;2022-10-16T15:35:11;2.35;;;1.13;;